Time;durP1;ratioP1;P1;durP2;ratioP2;P2;SDS_P1;SDS_P2;PMS_P1;PMS_P2;Temp;Humidity;BMP_temperature;BMP_pressure;BME280_temperature;BME280_humidity;BME280_pressure;Samples;Min_cycle;Max_cycle;Signal;HPM_P1;HPM_P2
2021/05/22 00:02:13;;;;;;;4.63;2.78;;;13.40;64.70;;;;;;5075551;28;20024;-36
2021/05/22 00:04:39;;;;;;;2.58;2.17;;;13.40;64.80;;;;;;5075280;28;20032;-36
2021/05/22 00:07:04;;;;;;;8.48;2.83;;;13.30;64.80;;;;;;5075427;28;20039;-37
2021/05/22 00:09:30;;;;;;;10.30;2.85;;;13.30;64.80;;;;;;5075476;28;20028;-39
2021/05/22 00:11:56;;;;;;;8.63;3.25;;;13.30;64.90;;;;;;5075252;28;20090;-39
2021/05/22 00:14:21;;;;;;;5.20;2.70;;;13.20;65.00;;;;;;5075092;28;20020;-37
2021/05/22 00:16:47;;;;;;;4.03;2.40;;;13.20;65.00;;;;;;5075110;28;20056;-36
2021/05/22 00:19:13;;;;;;;5.97;3.30;;;13.20;65.70;;;;;;5077007;28;20017;-40
2021/05/22 00:21:38;;;;;;;8.43;3.50;;;13.20;65.30;;;;;;5078986;28;20047;-39
2021/05/22 00:24:05;;;;;;;6.78;2.88;;;13.10;65.30;;;;;;5078845;28;20095;-39
2021/05/22 00:26:30;;;;;;;3.53;2.75;;;13.00;65.40;;;;;;5078799;28;20127;-36
2021/05/22 00:28:56;;;;;;;5.43;2.58;;;13.00;65.60;;;;;;5078774;28;20365;-36
2021/05/22 00:31:22;;;;;;;3.17;2.67;;;13.00;65.60;;;;;;5078652;28;20415;-39
2021/05/22 00:33:47;;;;;;;4.78;2.80;;;12.90;65.70;;;;;;5078680;28;20025;-36
2021/05/22 00:36:13;;;;;;;4.60;2.75;;;12.90;65.70;;;;;;5078446;28;20028;-35
2021/05/22 00:38:39;;;;;;;7.93;2.80;;;12.80;65.70;;;;;;5078592;28;20048;-37
2021/05/22 00:41:05;;;;;;;3.42;2.60;;;12.80;65.70;;;;;;5078726;28;20435;-39
2021/05/22 00:43:31;;;;;;;4.03;3.08;;;12.80;65.70;;;;;;5078600;28;20016;-36
2021/05/22 00:45:56;;;;;;;5.47;2.80;;;12.70;65.70;;;;;;5078357;28;20025;-39
2021/05/22 00:48:22;;;;;;;8.77;3.17;;;12.70;65.80;;;;;;5078102;28;20036;-35
2021/05/22 00:50:50;;;;;;;6.80;2.80;;;12.60;65.90;;;;;;5078588;28;20031;-38
2021/05/22 00:53:17;;;;;;;6.20;3.38;;;12.60;65.90;;;;;;5077825;28;20044;-36
2021/05/22 00:55:43;;;;;;;13.55;3.63;;;12.50;66.00;;;;;;5078306;28;20111;-36
2021/05/22 00:58:09;;;;;;;6.47;4.13;;;12.50;66.20;;;;;;5078378;28;20040;-39
2021/05/22 01:00:46;;;;;;;7.35;3.90;;;12.40;66.30;;;;;;5078388;28;20082;-36
2021/05/22 01:03:31;;;;;;;5.90;3.95;;;12.30;66.40;;;;;;5078743;28;20408;-39
2021/05/22 01:06:15;;;;;;;9.10;4.88;;;12.30;66.60;;;;;;5077917;28;20082;-39
2021/05/22 01:08:47;;;;;;;8.45;4.35;;;12.20;66.70;;;;;;5078047;28;20029;-39
2021/05/22 01:11:21;;;;;;;7.15;4.55;;;12.20;66.90;;;;;;5078147;28;20107;-36
2021/05/22 01:14:03;;;;;;;8.50;4.40;;;12.20;67.00;;;;;;5077873;28;20037;-35
2021/05/22 01:16:30;;;;;;;9.52;5.28;;;12.20;67.00;;;;;;5077881;28;20036;-35
2021/05/22 01:18:58;;;;;;;9.65;5.90;;;12.20;67.10;;;;;;5077733;28;20347;-36
2021/05/22 01:21:25;;;;;;;9.57;5.65;;;12.20;67.40;;;;;;5077863;28;20033;-39
2021/05/22 01:24:01;;;;;;;10.68;6.57;;;12.20;67.40;;;;;;5077705;28;20375;-36
2021/05/22 01:26:27;;;;;;;14.23;7.35;;;12.20;67.50;;;;;;5077646;28;20093;-36
2021/05/22 01:28:55;;;;;;;11.25;6.72;;;12.20;67.60;;;;;;5077148;28;20028;-37
2021/05/22 01:31:21;;;;;;;14.85;7.38;;;12.20;67.60;;;;;;5076926;28;20427;-36
2021/05/22 01:33:46;;;;;;;12.48;7.55;;;12.20;67.70;;;;;;5077115;28;20036;-36
2021/05/22 01:36:12;;;;;;;10.77;7.07;;;12.20;67.70;;;;;;5077397;28;20044;-39
2021/05/22 01:38:38;;;;;;;9.85;6.25;;;12.20;67.70;;;;;;5077101;28;20035;-39
2021/05/22 01:41:03;;;;;;;13.73;6.50;;;12.10;67.70;;;;;;5077545;28;20044;-39
2021/05/22 01:43:29;;;;;;;14.82;7.47;;;12.20;67.80;;;;;;5077321;28;20044;-39
2021/05/22 01:45:55;;;;;;;13.57;7.80;;;12.10;67.80;;;;;;5077422;28;20464;-37
2021/05/22 01:48:27;;;;;;;14.35;6.78;;;12.10;67.90;;;;;;5077457;28;20112;-36
2021/05/22 01:51:14;;;;;;;11.32;7.25;;;12.10;67.90;;;;;;5077392;28;20112;-36
2021/05/22 01:53:41;;;;;;;13.60;7.43;;;12.10;67.90;;;;;;5076605;28;20447;-38
2021/05/22 01:56:08;;;;;;;16.65;7.78;;;12.10;68.00;;;;;;5076959;28;20124;-36
2021/05/22 01:58:35;;;;;;;15.18;6.90;;;12.10;68.10;;;;;;5077008;28;20028;-36
2021/05/22 02:01:01;;;;;;;11.02;6.70;;;12.00;68.10;;;;;;5077075;28;20056;-36
2021/05/22 02:03:33;;;;;;;13.15;8.05;;;12.00;68.10;;;;;;5076977;28;20056;-39
2021/05/22 02:06:02;;;;;;;17.02;7.60;;;12.00;68.30;;;;;;5076889;28;20174;-36
2021/05/22 02:08:29;;;;;;;12.35;6.82;;;12.00;67.80;;;;;;5076666;28;20032;-36
2021/05/22 02:10:55;;;;;;;11.90;7.35;;;12.00;68.20;;;;;;5076700;28;20416;-39
2021/05/22 02:13:21;;;;;;;11.75;6.68;;;12.00;68.30;;;;;;5076322;28;20036;-36
2021/05/22 02:15:51;;;;;;;9.23;6.22;;;12.00;68.20;;;;;;5076515;28;20032;-36
2021/05/22 02:18:17;;;;;;;;;;;12.00;68.30;;;;;;5077285;28;20052;-39
2021/05/22 02:20:46;;;;;;;15.52;7.07;;;12.00;67.90;;;;;;5076770;28;19905;-35
2021/05/22 02:23:16;;;;;;;13.95;6.60;;;12.00;68.30;;;;;;5076705;28;20505;-35
2021/05/22 02:25:42;;;;;;;12.90;7.43;;;11.90;68.40;;;;;;5076346;28;20067;-39
2021/05/22 02:28:09;;;;;;;9.95;6.60;;;11.90;68.40;;;;;;5076811;28;20064;-39
2021/05/22 02:30:39;;;;;;;9.98;6.28;;;11.90;68.60;;;;;;5076353;28;20111;-39
2021/05/22 02:33:06;;;;;;;12.02;6.60;;;11.90;68.60;;;;;;5076535;28;20028;-36
2021/05/22 02:35:33;;;;;;;10.00;6.30;;;11.90;68.70;;;;;;5076531;28;20037;-39
2021/05/22 02:37:59;;;;;;;13.98;6.32;;;11.90;68.70;;;;;;5076233;28;20236;-38
2021/05/22 02:40:28;;;;;;;10.48;6.20;;;11.90;68.80;;;;;;5076167;28;20020;-39
2021/05/22 02:42:57;;;;;;;11.60;7.60;;;11.90;68.70;;;;;;5076252;28;20039;-39
2021/05/22 02:45:26;;;;;;;11.90;6.78;;;12.00;68.90;;;;;;5076400;28;20032;-39
2021/05/22 02:47:54;;;;;;;12.00;6.60;;;12.00;69.10;;;;;;5076175;28;20031;-39
2021/05/22 02:50:23;;;;;;;11.30;6.35;;;12.00;69.00;;;;;;5076088;28;20348;-38
2021/05/22 02:52:49;;;;;;;15.90;9.05;;;12.00;69.20;;;;;;5075586;28;20396;-36
2021/05/22 02:55:15;;;;;;;15.25;6.75;;;12.00;69.20;;;;;;5075960;28;20040;-36
2021/05/22 02:57:43;;;;;;;10.05;6.88;;;12.10;69.40;;;;;;5076080;28;20029;-38
2021/05/22 03:00:09;;;;;;;11.40;6.65;;;12.00;69.50;;;;;;5076135;28;20107;-40
2021/05/22 03:02:37;;;;;;;21.50;7.93;;;12.00;69.60;;;;;;5076175;28;20060;-39
2021/05/22 03:05:07;;;;;;;17.52;8.05;;;12.10;70.00;;;;;;5076043;28;20032;-36
2021/05/22 03:07:34;;;;;;;9.67;6.40;;;12.10;70.10;;;;;;5058480;28;20020;-36
2021/05/22 03:09:59;;;;;;;11.60;7.25;;;12.10;70.10;;;;;;5076011;28;20439;-39
2021/05/22 03:12:30;;;;;;;10.32;6.38;;;12.20;70.30;;;;;;5072876;28;20032;-36
2021/05/22 03:14:56;;;;;;;17.05;8.70;;;12.20;70.40;;;;;;5075705;28;20032;-36
2021/05/22 03:17:22;;;;;;;15.30;7.70;;;12.30;70.50;;;;;;5075659;28;20432;-36
2021/05/22 03:19:47;;;;;;;17.05;7.63;;;12.40;70.60;;;;;;5075550;28;20351;-39
2021/05/22 03:22:13;;;;;;;20.77;7.82;;;12.40;70.70;;;;;;5075766;28;20028;-39
2021/05/22 03:24:39;;;;;;;14.73;6.95;;;12.50;71.00;;;;;;5075335;28;20041;-36
2021/05/22 03:27:05;;;;;;;26.27;7.70;;;12.60;70.90;;;;;;5075616;28;20416;-39
2021/05/22 03:29:31;;;;;;;17.38;7.50;;;12.70;70.90;;;;;;5075313;28;20032;-36
2021/05/22 03:31:57;;;;;;;12.32;7.00;;;12.80;70.90;;;;;;5075653;28;20032;-39
2021/05/22 03:34:23;;;;;;;16.98;8.23;;;12.90;70.90;;;;;;5075071;28;20331;-39
2021/05/22 03:36:48;;;;;;;17.33;7.47;;;13.00;70.80;;;;;;5075335;28;20036;-36
2021/05/22 03:39:14;;;;;;;10.73;6.90;;;13.10;70.60;;;;;;5075380;28;20419;-36
2021/05/22 03:41:40;;;;;;;15.07;7.85;;;13.20;70.30;;;;;;5075632;28;20056;-39
2021/05/22 03:44:06;;;;;;;12.63;7.85;;;13.20;70.30;;;;;;5075305;28;20037;-39
2021/05/22 03:46:31;;;;;;;12.02;7.38;;;13.40;70.10;;;;;;5075482;28;20044;-40
2021/05/22 03:48:57;;;;;;;14.27;7.50;;;13.40;70.00;;;;;;5075233;28;20036;-39
2021/05/22 03:51:23;;;;;;;15.45;7.47;;;13.50;69.90;;;;;;5075267;28;20040;-39
2021/05/22 03:53:49;;;;;;;14.18;8.15;;;13.60;69.70;;;;;;5076103;28;20055;-39
2021/05/22 03:56:15;;;;;;;12.88;8.50;;;13.70;69.70;;;;;;5079150;28;20048;-36
2021/05/22 03:58:41;;;;;;;12.25;6.93;;;13.80;69.70;;;;;;5078865;28;20025;-36
2021/05/22 04:01:06;;;;;;;9.38;6.85;;;14.00;69.60;;;;;;5079278;28;20021;-36
2021/05/22 04:03:32;;;;;;;12.75;6.40;;;14.10;69.30;;;;;;5078645;28;20423;-39
2021/05/22 04:05:58;;;;;;;11.48;6.10;;;14.20;68.40;;;;;;5078857;28;20079;-36
2021/05/22 04:08:23;;;;;;;7.68;5.35;;;14.30;67.70;;;;;;5078787;28;20033;-36
2021/05/22 04:10:49;;;;;;;9.75;5.53;;;14.40;67.10;;;;;;5078830;28;20039;-40
2021/05/22 04:13:15;;;;;;;8.85;6.13;;;14.50;66.60;;;;;;5078751;28;20114;-37
2021/05/22 04:15:41;;;;;;;13.77;6.40;;;14.70;66.40;;;;;;5078938;28;20362;-37
2021/05/22 04:18:09;;;;;;;12.70;6.07;;;14.80;66.30;;;;;;5078732;28;20040;-36
2021/05/22 04:20:35;;;;;;;10.65;6.82;;;14.90;65.80;;;;;;5078949;28;20116;-36
2021/05/22 04:23:00;;;;;;;13.05;5.78;;;15.00;65.90;;;;;;5078787;28;20029;-37
2021/05/22 04:25:26;;;;;;;9.30;5.60;;;15.10;65.70;;;;;;5078993;28;20040;-39
2021/05/22 04:27:52;;;;;;;7.22;5.28;;;15.20;65.30;;;;;;5078789;28;20115;-36
2021/05/22 04:30:18;;;;;;;11.43;5.18;;;15.30;64.90;;;;;;5078894;28;20405;-39
2021/05/22 04:32:43;;;;;;;6.72;4.38;;;15.40;64.40;;;;;;5078420;28;20396;-37
2021/05/22 04:35:09;;;;;;;7.07;4.53;;;15.50;64.10;;;;;;5077618;28;20048;-39
2021/05/22 04:37:35;;;;;;;9.27;4.88;;;15.50;63.60;;;;;;5078400;28;20032;-40
2021/05/22 04:40:01;;;;;;;10.07;4.55;;;15.60;63.30;;;;;;5078298;28;20028;-39
2021/05/22 04:42:27;;;;;;;9.48;3.83;;;15.70;63.10;;;;;;5078603;28;20119;-36
2021/05/22 04:44:53;;;;;;;11.82;4.97;;;15.80;62.90;;;;;;5077881;28;20037;-40
2021/05/22 04:47:19;;;;;;;8.55;4.45;;;15.90;62.70;;;;;;5078585;28;20035;-36
2021/05/22 04:49:44;;;;;;;42.35;6.97;;;16.00;62.50;;;;;;5078649;28;20029;-40
2021/05/22 04:52:10;;;;;;;14.85;7.35;;;16.10;63.00;;;;;;5078131;28;20033;-36
2021/05/22 04:54:36;;;;;;;12.65;5.90;;;16.20;63.30;;;;;;5077649;28;20087;-36
2021/05/22 04:57:01;;;;;;;7.25;4.55;;;16.40;63.40;;;;;;5077864;28;20025;-36
2021/05/22 04:59:27;;;;;;;9.73;4.75;;;16.50;63.40;;;;;;5078034;28;20029;-39
2021/05/22 05:01:53;;;;;;;11.18;5.22;;;16.50;63.30;;;;;;5077482;28;20419;-36
2021/05/22 05:04:19;;;;;;;6.80;4.78;;;16.60;63.00;;;;;;5077352;28;20024;-36
2021/05/22 05:06:44;;;;;;;20.10;13.63;;;16.70;62.70;;;;;;5076637;28;20033;-40
2021/05/22 05:09:10;;;;;;;8.70;5.47;;;16.80;62.40;;;;;;5076986;28;20124;-40
2021/05/22 05:11:35;;;;;;;6.20;4.75;;;16.90;62.10;;;;;;5059983;28;20211;-36
2021/05/22 05:14:01;;;;;;;6.00;3.80;;;17.00;61.50;;;;;;5077584;28;20387;-39
2021/05/22 05:16:28;;;;;;;7.43;3.58;;;17.00;61.40;;;;;;5077480;28;20335;-40
2021/05/22 05:18:54;;;;;;;6.97;3.70;;;17.10;61.20;;;;;;5077544;28;20064;-40
2021/05/22 05:21:20;;;;;;;7.18;4.15;;;17.20;60.90;;;;;;5077696;28;20313;-39
2021/05/22 05:23:46;;;;;;;6.20;3.95;;;17.20;60.70;;;;;;5077287;28;20025;-41
2021/05/22 05:26:11;;;;;;;6.20;3.70;;;17.30;60.30;;;;;;5059583;28;20030;-40
2021/05/22 05:28:37;;;;;;;6.13;3.13;;;17.40;60.10;;;;;;5073989;28;20036;-40
2021/05/22 05:31:03;;;;;;;4.97;3.30;;;17.40;60.00;;;;;;5077237;28;20029;-40
2021/05/22 05:33:28;;;;;;;9.30;4.30;;;17.50;60.00;;;;;;5076908;28;20404;-40
2021/05/22 05:35:54;;;;;;;33.30;23.05;;;17.60;60.00;;;;;;5077055;28;20328;-37
2021/05/22 05:38:20;;;;;;;10.32;5.68;;;17.60;59.80;;;;;;5078897;28;20024;-39
2021/05/22 05:40:46;;;;;;;13.95;5.35;;;17.70;59.70;;;;;;5076873;28;20317;-37
2021/05/22 05:43:13;;;;;;;7.57;4.85;;;17.80;59.90;;;;;;5085594;28;20027;-39
2021/05/22 05:45:40;;;;;;;7.30;4.03;;;17.80;59.80;;;;;;5056530;28;20035;-40
2021/05/22 05:48:08;;;;;;;6.88;3.80;;;17.90;59.80;;;;;;5056690;28;20069;-40
2021/05/22 05:50:34;;;;;;;7.82;4.70;;;18.00;60.00;;;;;;5056994;28;20025;-39
2021/05/22 05:53:01;;;;;;;6.03;3.92;;;18.10;59.50;;;;;;5056403;28;20057;-40
2021/05/22 05:55:27;;;;;;;5.53;3.60;;;18.20;59.40;;;;;;5056755;28;20333;-40
2021/05/22 05:57:53;;;;;;;6.00;3.63;;;18.20;58.60;;;;;;5056171;28;20029;-41
2021/05/22 06:00:19;;;;;;;9.38;3.85;;;18.30;58.10;;;;;;5056769;28;20029;-37
2021/05/22 06:02:46;;;;;;;17.15;3.72;;;18.40;56.50;;;;;;5056411;28;20025;-40
2021/05/22 06:05:12;;;;;;;4.35;2.90;;;18.50;55.50;;;;;;5056329;28;20037;-41
2021/05/22 06:07:37;;;;;;;5.82;3.42;;;18.60;54.00;;;;;;5056090;28;20044;-37
2021/05/22 06:10:06;;;;;;;10.13;4.53;;;18.60;54.70;;;;;;5056156;28;20029;-37
2021/05/22 06:12:32;;;;;;;5.57;3.60;;;18.70;56.30;;;;;;5056529;28;20040;-37
2021/05/22 06:15:03;;;;;;;10.80;6.35;;;18.80;56.80;;;;;;5055951;28;20328;-39
2021/05/22 06:17:30;;;;;;;12.82;9.15;;;18.80;55.20;;;;;;5056045;28;20037;-37
2021/05/22 06:19:55;;;;;;;7.03;4.97;;;18.90;55.30;;;;;;5055769;28;20314;-37
2021/05/22 06:22:21;;;;;;;7.38;4.95;;;19.00;54.40;;;;;;5056226;28;20107;-37
2021/05/22 06:24:47;;;;;;;25.75;13.07;;;19.00;55.60;;;;;;5055848;28;20036;-40
2021/05/22 06:27:12;;;;;;;16.20;7.25;;;19.10;56.60;;;;;;5088348;28;20043;-40
2021/05/22 06:29:38;;;;;;;9.02;6.72;;;19.20;57.80;;;;;;5094894;28;20060;-40
2021/05/22 06:32:06;;;;;;;8.70;5.63;;;19.20;58.20;;;;;;5087598;28;20033;-40
2021/05/22 06:34:32;;;;;;;7.40;5.68;;;19.30;58.30;;;;;;5090055;28;20044;-40
2021/05/22 06:36:57;;;;;;;10.93;6.68;;;19.30;58.80;;;;;;5091345;28;20032;-40
2021/05/22 06:39:23;;;;;;;7.88;5.53;;;19.30;59.00;;;;;;5075624;28;20024;-40
2021/05/22 06:41:48;;;;;;;10.80;6.32;;;19.40;59.00;;;;;;5086757;28;20316;-40
2021/05/22 06:44:24;;;;;;;10.48;6.10;;;19.40;58.10;;;;;;5075218;28;20367;-40
2021/05/22 06:46:49;;;;;;;14.40;8.95;;;19.50;58.10;;;;;;5075669;28;20037;-40
2021/05/22 06:49:16;;;;;;;13.48;8.13;;;19.50;58.40;;;;;;5075702;28;20028;-41
2021/05/22 06:51:42;;;;;;;15.57;7.25;;;19.50;58.20;;;;;;5075420;28;20029;-37
2021/05/22 06:54:07;;;;;;;15.32;9.23;;;19.60;58.20;;;;;;5075091;28;20055;-37
2021/05/22 06:56:33;;;;;;;15.20;8.98;;;19.60;58.20;;;;;;5075699;28;20025;-40
2021/05/22 06:58:59;;;;;;;13.88;9.77;;;19.70;58.10;;;;;;5074858;28;20107;-40
2021/05/22 07:01:26;;;;;;;16.88;9.88;;;19.70;57.70;;;;;;5069818;28;20024;-40
2021/05/22 07:03:53;;;;;;;17.77;11.05;;;19.70;57.20;;;;;;5074356;28;20036;-40
2021/05/22 07:06:19;;;;;;;16.45;10.23;;;19.80;56.90;;;;;;5076746;28;20077;-40
2021/05/22 07:08:44;;;;;;;19.35;12.10;;;19.80;56.30;;;;;;5086526;28;20358;-40
2021/05/22 07:11:10;;;;;;;18.02;12.85;;;19.90;54.90;;;;;;5086393;28;20024;-37
2021/05/22 07:13:36;;;;;;;21.35;13.05;;;20.00;54.90;;;;;;5090181;28;20400;-37
2021/05/22 07:16:01;;;;;;;19.88;15.77;;;20.00;53.70;;;;;;5074752;28;20032;-39
2021/05/22 07:18:27;;;;;;;25.10;17.67;;;20.10;53.90;;;;;;5075064;28;20070;-40
2021/05/22 07:20:53;;;;;;;24.77;13.68;;;20.10;53.80;;;;;;5074785;28;20031;-37
2021/05/22 07:23:18;;;;;;;13.80;11.90;;;20.20;53.50;;;;;;5074706;28;20033;-37
2021/05/22 07:25:44;;;;;;;22.85;14.68;;;20.30;53.80;;;;;;5075082;28;20024;-40
2021/05/22 07:28:14;;;;;;;19.92;13.30;;;20.30;54.30;;;;;;5074783;28;20036;-39
2021/05/22 07:30:40;;;;;;;20.77;13.68;;;20.40;53.80;;;;;;5079439;28;20048;-37
2021/05/22 07:33:05;;;;;;;18.33;11.85;;;20.50;53.50;;;;;;5079035;28;20418;-39
2021/05/22 07:35:31;;;;;;;14.82;9.98;;;20.50;53.50;;;;;;5079241;28;20033;-40
2021/05/22 07:37:57;;;;;;;10.70;8.57;;;20.60;52.90;;;;;;5078141;28;20029;-39
2021/05/22 07:40:22;;;;;;;9.75;8.05;;;20.60;52.00;;;;;;5079156;28;20063;-40
2021/05/22 07:42:49;;;;;;;11.68;7.07;;;20.60;51.40;;;;;;5078337;28;20037;-36
2021/05/22 07:45:17;;;;;;;13.25;7.97;;;20.70;51.30;;;;;;5079055;28;20375;-36
2021/05/22 07:47:43;;;;;;;8.50;7.38;;;20.70;50.40;;;;;;5078757;28;20036;-36
2021/05/22 07:50:09;;;;;;;9.00;5.60;;;20.70;50.00;;;;;;5078960;28;20036;-39
2021/05/22 07:52:36;;;;;;;14.18;9.50;;;20.80;49.20;;;;;;5077843;28;20116;-39
2021/05/22 07:55:02;;;;;;;15.23;7.63;;;20.90;49.00;;;;;;5078805;28;20116;-37
2021/05/22 07:57:28;;;;;;;10.25;7.60;;;20.90;48.20;;;;;;5078633;28;20024;-36
2021/05/22 07:59:53;;;;;;;10.73;7.60;;;21.00;48.50;;;;;;5078498;28;20028;-37
2021/05/22 08:02:19;;;;;;;13.00;5.90;;;21.10;49.10;;;;;;5078323;28;20074;-40
2021/05/22 08:04:45;;;;;;;8.93;5.55;;;21.10;48.20;;;;;;5078559;28;20032;-40
2021/05/22 08:07:10;;;;;;;5.50;4.47;;;21.20;48.10;;;;;;5076511;28;20033;-40
2021/05/22 08:09:36;;;;;;;5.65;3.90;;;21.30;48.20;;;;;;5078095;28;20040;-36
2021/05/22 08:12:02;;;;;;;4.30;2.83;;;21.30;48.30;;;;;;5078254;28;20028;-37
2021/05/22 08:14:28;;;;;;;8.38;2.70;;;21.40;47.60;;;;;;5078456;28;20086;-37
2021/05/22 08:16:53;;;;;;;6.65;2.72;;;21.40;46.40;;;;;;5077816;28;20308;-39
2021/05/22 08:19:19;;;;;;;3.88;2.83;;;21.40;45.70;;;;;;5077888;28;20029;-40
2021/05/22 08:21:45;;;;;;;4.25;1.98;;;21.50;44.00;;;;;;5077814;28;20036;-37
2021/05/22 08:24:12;;;;;;;5.13;2.42;;;21.40;42.80;;;;;;5077715;28;20024;-37
2021/05/22 08:26:43;;;;;;;2.63;1.88;;;21.50;42.30;;;;;;5077618;28;20028;-37
2021/05/22 08:29:09;;;;;;;4.82;1.80;;;21.40;41.50;;;;;;5077112;28;20054;-39
2021/05/22 08:31:35;;;;;;;3.67;1.88;;;21.40;41.70;;;;;;5078094;28;20162;-36
2021/05/22 08:34:02;;;;;;;3.03;1.77;;;21.50;40.60;;;;;;5077215;28;20033;-37
2021/05/22 08:36:28;;;;;;;2.80;1.40;;;21.40;40.80;;;;;;5077540;28;20049;-37
2021/05/22 08:38:54;;;;;;;7.88;2.30;;;21.50;40.70;;;;;;5076786;28;20024;-37
2021/05/22 08:41:20;;;;;;;3.13;1.30;;;21.50;40.20;;;;;;5077335;28;20464;-40
2021/05/22 08:43:48;;;;;;;7.38;1.50;;;21.60;39.80;;;;;;5077277;28;20371;-40
2021/05/22 08:46:14;;;;;;;2.35;1.10;;;21.60;40.00;;;;;;5077720;28;20032;-37
2021/05/22 08:48:40;;;;;;;6.13;1.58;;;21.60;40.10;;;;;;5076885;28;20115;-40
2021/05/22 08:51:08;;;;;;;5.57;2.50;;;21.70;39.60;;;;;;5077162;28;20056;-40
2021/05/22 08:53:34;;;;;;;4.50;3.10;;;21.70;39.30;;;;;;5077164;28;20049;-40
2021/05/22 08:55:59;;;;;;;7.65;1.75;;;21.70;37.90;;;;;;5077258;28;20434;-40
2021/05/22 08:58:25;;;;;;;1.10;1.00;;;21.80;37.70;;;;;;5076949;28;20035;-37
2021/05/22 09:00:53;;;;;;;3.50;1.23;;;21.80;37.90;;;;;;5076816;28;20016;-36
2021/05/22 09:03:19;;;;;;;2.28;1.45;;;21.80;37.10;;;;;;5077349;28;20032;-40
2021/05/22 09:05:45;;;;;;;2.65;1.38;;;21.90;37.30;;;;;;5077327;28;20320;-41
2021/05/22 09:08:13;;;;;;;4.47;1.27;;;21.90;37.40;;;;;;5077349;28;20035;-40
2021/05/22 09:10:47;;;;;;;1.10;1.00;;;22.00;36.70;;;;;;5077052;28;20051;-40
2021/05/22 09:13:22;;;;;;;5.95;1.30;;;22.10;36.70;;;;;;5077783;28;20045;-39
2021/05/22 09:15:53;;;;;;;2.28;1.25;;;22.00;37.00;;;;;;5077033;28;20036;-37
2021/05/22 09:18:20;;;;;;;1.67;1.00;;;22.10;37.00;;;;;;5085888;28;20040;-37
2021/05/22 09:20:51;;;;;;;1.55;1.30;;;22.10;36.40;;;;;;5094688;28;20042;-39
2021/05/22 09:23:22;;;;;;;10.98;3.25;;;22.20;35.70;;;;;;5078677;28;20396;-36
2021/05/22 09:26:01;;;;;;;2.47;1.80;;;22.30;35.40;;;;;;5077006;28;20098;-37
2021/05/22 09:28:29;;;;;;;1.77;1.60;;;22.30;35.10;;;;;;5076901;28;20343;-40
2021/05/22 09:30:56;;;;;;;52.83;44.83;;;22.40;34.70;;;;;;5076815;28;20115;-41
2021/05/22 09:33:31;;;;;;;5.72;4.43;;;22.40;34.80;;;;;;5085591;28;20040;-40
2021/05/22 09:36:00;;;;;;;3.70;1.77;;;22.50;34.80;;;;;;5076469;28;20474;-40
2021/05/22 09:38:45;;;;;;;1.98;1.50;;;22.60;34.90;;;;;;5076517;28;20036;-39
2021/05/22 09:41:20;;;;;;;4.78;2.47;;;22.60;34.50;;;;;;5077074;28;20052;-40
2021/05/22 09:44:09;;;;;;;7.07;2.72;;;22.60;34.50;;;;;;5076767;28;20045;-40
2021/05/22 09:46:59;;;;;;;3.50;2.10;;;22.70;34.10;;;;;;5076907;28;20099;-40
2021/05/22 09:49:30;;;;;;;2.70;1.90;;;22.80;33.80;;;;;;5076101;28;20103;-37
2021/05/22 09:52:08;;;;;;;3.63;2.17;;;22.80;34.50;;;;;;5075765;28;20039;-37
2021/05/22 09:54:48;;;;;;;6.13;2.15;;;22.90;34.40;;;;;;5076393;28;20044;-39
2021/05/22 09:57:19;;;;;;;6.72;3.88;;;23.00;34.20;;;;;;5075137;28;20031;-36
2021/05/22 10:00:17;;;;;;;7.05;3.70;;;23.00;34.50;;;;;;5076464;28;20111;-40
2021/05/22 10:02:50;;;;;;;5.53;2.95;;;23.10;35.10;;;;;;5076324;28;20028;-41
2021/05/22 10:05:32;;;;;;;9.80;3.30;;;23.20;35.40;;;;;;5076614;28;20123;-41
2021/05/22 10:07:59;;;;;;;4.82;3.03;;;23.20;35.30;;;;;;5075380;28;20102;-41
2021/05/22 10:10:41;;;;;;;4.45;2.85;;;23.30;35.70;;;;;;5075605;28;20038;-41
2021/05/22 10:13:08;;;;;;;2.35;1.65;;;23.30;36.10;;;;;;5076504;28;20035;-38
2021/05/22 10:15:33;;;;;;;4.07;2.97;;;23.30;36.10;;;;;;5075958;28;20044;-41
2021/05/22 10:17:59;;;;;;;5.80;2.78;;;23.40;35.80;;;;;;5072665;28;20028;-38
2021/05/22 10:20:25;;;;;;;6.40;2.40;;;23.40;36.00;;;;;;5075685;28;20424;-39
2021/05/22 10:22:51;;;;;;;7.70;2.95;;;23.50;36.60;;;;;;5075830;28;20033;-38
2021/05/22 10:25:17;;;;;;;5.43;3.50;;;23.50;36.70;;;;;;5081169;28;20032;-40
2021/05/22 10:27:43;;;;;;;5.53;3.58;;;23.60;36.70;;;;;;5084302;28;20043;-44
2021/05/22 10:30:10;;;;;;;5.45;3.38;;;23.60;36.50;;;;;;5072014;28;20032;-41
2021/05/22 10:32:38;;;;;;;10.57;2.85;;;23.70;36.90;;;;;;5074251;28;20132;-42
2021/05/22 10:35:09;;;;;;;6.50;2.40;;;23.90;37.30;;;;;;5075318;28;20060;-41
2021/05/22 10:37:41;;;;;;;6.20;2.30;;;24.00;37.10;;;;;;5075384;28;20039;-41
2021/05/22 10:40:09;;;;;;;4.75;3.40;;;24.10;36.70;;;;;;5075440;28;20067;-39
2021/05/22 10:42:35;;;;;;;5.90;1.70;;;24.20;36.50;;;;;;5094846;28;20414;-39
2021/05/22 10:45:30;;;;;;;2.45;1.20;;;24.30;36.20;;;;;;5083896;28;20344;-39
2021/05/22 10:48:01;;;;;;;6.68;2.00;;;24.40;35.70;;;;;;5075303;28;20029;-39
2021/05/22 10:50:37;;;;;;;3.55;2.20;;;24.40;36.00;;;;;;5074147;28;20115;-39
2021/05/22 10:53:29;;;;;;;5.38;3.08;;;24.50;35.70;;;;;;5094086;28;20044;-39
2021/05/22 10:56:15;;;;;;;3.13;1.95;;;24.60;35.90;;;;;;5073628;28;20144;-39
2021/05/22 10:59:06;;;;;;;5.10;2.25;;;24.70;34.60;;;;;;5075162;28;20370;-39
2021/05/22 11:01:37;;;;;;;3.95;2.10;;;24.80;35.20;;;;;;5067447;28;20104;-39
2021/05/22 11:04:10;;;;;;;4.55;2.10;;;24.80;34.80;;;;;;5087421;28;20055;-39
2021/05/22 11:06:42;;;;;;;2.13;1.63;;;25.00;33.80;;;;;;5094519;28;20028;-39
2021/05/22 11:09:26;;;;;;;2.28;1.73;;;25.00;34.00;;;;;;5095074;28;20032;-39
2021/05/22 11:11:53;;;;;;;3.15;2.30;;;25.20;33.90;;;;;;5095118;28;20032;-40
2021/05/22 11:14:40;;;;;;;8.15;5.90;;;25.20;34.20;;;;;;5095044;28;20036;-40
2021/05/22 11:17:26;;;;;;;8.55;4.07;;;25.30;34.70;;;;;;5095014;28;20055;-40
2021/05/22 11:19:59;;;;;;;3.92;2.47;;;25.40;35.10;;;;;;5094687;28;20032;-40
2021/05/22 11:22:26;;;;;;;3.58;2.15;;;25.50;35.20;;;;;;5076718;28;20025;-39
2021/05/22 11:25:14;;;;;;;4.28;2.20;;;25.60;34.90;;;;;;5074721;28;20368;-40
2021/05/22 11:27:49;;;;;;;3.28;1.58;;;25.70;34.40;;;;;;5074775;28;20036;-39
2021/05/22 11:30:17;;;;;;;3.63;2.63;;;25.80;34.80;;;;;;5054447;28;20332;-40
2021/05/22 11:32:52;;;;;;;5.82;3.05;;;25.90;34.60;;;;;;5054771;28;20151;-40
2021/05/22 11:35:36;;;;;;;5.18;1.58;;;26.00;33.60;;;;;;5055293;28;20041;-39
2021/05/22 11:38:11;;;;;;;3.30;2.42;;;26.20;34.10;;;;;;5055034;28;20024;-39
2021/05/22 11:40:39;;;;;;;3.25;2.58;;;26.30;33.80;;;;;;5054796;28;20124;-40
2021/05/22 11:45:54;;;;;;;5.90;1.90;;;26.60;34.40;;;;;;5055146;28;20041;-39
2021/05/22 11:48:34;;;;;;;6.00;1.50;;;26.80;34.50;;;;;;5037224;28;20423;-39
2021/05/22 11:51:17;;;;;;;8.90;2.23;;;26.90;33.60;;;;;;5055132;28;20340;-39
2021/05/22 11:53:48;;;;;;;6.07;1.65;;;27.00;33.70;;;;;;5054068;28;20080;-43
2021/05/22 11:56:15;;;;;;;4.78;2.30;;;27.00;33.30;;;;;;5058079;28;20028;-40
2021/05/22 11:58:47;;;;;;;3.25;2.30;;;27.10;32.50;;;;;;5089757;28;20055;-39
2021/05/22 12:01:17;;;;;;;2.40;2.20;;;27.00;31.70;;;;;;5074999;28;20096;-45
2021/05/22 12:03:45;;;;;;;4.88;2.80;;;27.00;31.20;;;;;;5075453;28;20090;-43
2021/05/22 12:06:24;;;;;;;5.25;1.88;;;26.90;31.50;;;;;;5075449;28;20040;-41
2021/05/22 12:09:09;;;;;;;7.60;2.17;;;26.80;31.60;;;;;;5074683;28;20063;-39
2021/05/22 12:11:41;;;;;;;6.53;3.50;;;26.80;31.90;;;;;;5074571;28;20059;-39
2021/05/22 12:14:08;;;;;;;8.68;4.65;;;26.80;32.20;;;;;;5075381;28;20041;-39
2021/05/22 12:16:35;;;;;;;5.75;2.10;;;26.90;32.80;;;;;;5078786;28;20024;-39
2021/05/22 12:19:16;;;;;;;2.78;1.75;;;27.10;33.20;;;;;;5078090;28;20041;-39
2021/05/22 12:21:51;;;;;;;3.00;1.50;;;27.30;33.20;;;;;;5078710;28;20053;-38
2021/05/22 12:24:18;;;;;;;5.40;1.40;;;27.60;32.50;;;;;;5078344;28;20043;-39
2021/05/22 12:27:01;;;;;;;1.50;1.27;;;27.80;32.00;;;;;;5078262;28;20102;-39
2021/05/22 12:29:29;;;;;;;3.25;1.67;;;28.00;32.40;;;;;;5078673;28;20036;-39
2021/05/22 12:32:04;;;;;;;2.30;1.25;;;28.20;32.40;;;;;;5077867;28;20412;-38
2021/05/22 12:34:35;;;;;;;7.70;3.20;;;28.40;31.90;;;;;;5076439;28;20413;-39
2021/05/22 12:37:12;;;;;;;12.95;4.10;;;28.60;31.60;;;;;;5078250;28;20025;-39
2021/05/22 12:39:41;;;;;;;4.25;1.70;;;28.80;30.80;;;;;;5077789;28;20057;-39
2021/05/22 12:42:28;;;;;;;4.10;2.00;;;29.00;31.10;;;;;;5078200;28;20055;-39
2021/05/22 12:44:58;;;;;;;3.67;2.15;;;29.20;31.20;;;;;;5078121;28;20041;-39
2021/05/22 12:47:37;;;;;;;2.80;2.50;;;29.20;30.80;;;;;;5078337;28;20028;-39
2021/05/22 12:50:07;;;;;;;2.58;2.17;;;29.40;29.40;;;;;;5075157;28;20179;-39
2021/05/22 12:52:52;;;;;;;4.18;2.97;;;29.50;29.10;;;;;;5077839;28;20024;-39
2021/05/22 12:55:20;;;;;;;3.00;2.13;;;29.60;29.40;;;;;;5077981;28;20124;-39